Time;durP1;ratioP1;P1;durP2;ratioP2;P2;SDS_P1;SDS_P2;PMS_P1;PMS_P2;Temp;Humidity;BMP_temperature;BMP_pressure;BME280_temperature;BME280_humidity;BME280_pressure;Samples;Min_cycle;Max_cycle;Signal;HPM_P1;HPM_P2
2020/12/30 00:00:15;;;;;;;13.57;6.10;;;3.60;96.80;;;;;;5019062;28;20463;-85
2020/12/30 00:02:40;;;;;;;12.20;6.23;;;3.60;96.80;;;;;;5018590;28;20177;-85
2020/12/30 00:05:09;;;;;;;6.83;4.90;;;3.60;97.00;;;;;;5019034;28;20588;-85
2020/12/30 00:07:36;;;;;;;13.65;6.57;;;3.50;97.00;;;;;;5018637;28;20205;-85
2020/12/30 00:10:03;;;;;;;14.57;6.35;;;3.50;97.30;;;;;;5018636;28;20545;-85
2020/12/30 00:12:31;;;;;;;20.92;9.20;;;3.60;97.00;;;;;;5018610;28;20599;-85
2020/12/30 00:14:57;;;;;;;17.92;7.93;;;3.60;96.80;;;;;;5018637;28;20192;-85
2020/12/30 00:17:23;;;;;;;18.60;7.90;;;3.60;96.70;;;;;;5018334;28;20578;-84
2020/12/30 00:19:50;;;;;;;15.38;7.35;;;3.70;96.80;;;;;;5018608;28;20170;-85
2020/12/30 00:22:16;;;;;;;19.58;9.20;;;3.60;96.70;;;;;;5018411;28;20201;-85
2020/12/30 00:24:42;;;;;;;16.83;7.97;;;3.60;97.00;;;;;;5018631;28;20169;-85
2020/12/30 00:27:08;;;;;;;16.13;7.40;;;3.50;97.00;;;;;;5018317;28;20200;-85
2020/12/30 00:29:34;;;;;;;10.60;4.53;;;3.60;97.20;;;;;;5018553;28;20169;-84
2020/12/30 00:31:59;;;;;;;15.10;5.90;;;3.60;97.00;;;;;;5018105;28;20170;-84
2020/12/30 00:34:25;;;;;;;9.87;5.43;;;3.70;96.60;;;;;;5018098;28;20415;-85
2020/12/30 00:36:51;;;;;;;11.23;5.17;;;3.80;96.40;;;;;;5018025;28;20424;-85
2020/12/30 00:39:17;;;;;;;8.98;4.65;;;3.80;96.20;;;;;;5018070;28;20203;-85
2020/12/30 00:41:43;;;;;;;9.17;5.00;;;3.80;96.00;;;;;;5018220;28;20200;-84
2020/12/30 00:44:09;;;;;;;7.18;3.80;;;3.80;95.80;;;;;;5017900;28;21071;-85
2020/12/30 00:46:35;;;;;;;6.78;3.80;;;3.80;95.50;;;;;;5017718;28;20564;-85
2020/12/30 00:49:01;;;;;;;13.60;5.25;;;3.80;95.50;;;;;;5018040;28;20170;-85
2020/12/30 00:51:27;;;;;;;14.73;6.88;;;3.80;95.40;;;;;;5017938;28;20706;-85
2020/12/30 00:53:53;;;;;;;15.77;8.00;;;3.80;95.60;;;;;;5017900;28;20197;-85
2020/12/30 00:56:18;;;;;;;14.80;7.67;;;3.80;95.80;;;;;;5016906;28;20190;-85
2020/12/30 00:58:44;;;;;;;14.07;7.10;;;3.70;95.90;;;;;;5017866;28;20409;-85
2020/12/30 01:01:10;;;;;;;11.73;6.67;;;3.60;96.00;;;;;;5017512;28;20296;-85
2020/12/30 01:03:36;;;;;;;16.10;6.57;;;3.70;96.10;;;;;;5017568;28;20173;-85
2020/12/30 01:06:03;;;;;;;10.45;6.13;;;3.60;96.30;;;;;;5017723;28;20983;-85
2020/12/30 01:08:30;;;;;;;15.73;7.13;;;3.70;96.10;;;;;;5017713;28;20194;-85
2020/12/30 01:10:56;;;;;;;11.77;6.05;;;3.60;96.00;;;;;;5017655;28;20208;-85
2020/12/30 01:13:22;;;;;;;11.73;5.50;;;3.70;96.10;;;;;;5017451;28;20610;-85
2020/12/30 01:15:48;;;;;;;16.27;6.90;;;3.70;96.00;;;;;;5017542;28;20432;-85
2020/12/30 01:18:14;;;;;;;14.00;6.37;;;3.70;95.90;;;;;;5017375;28;20205;-85
2020/12/30 01:20:39;;;;;;;15.63;7.23;;;3.70;95.90;;;;;;5017241;28;20181;-85
2020/12/30 01:23:05;;;;;;;14.00;7.70;;;3.70;95.90;;;;;;5017055;28;20516;-85
2020/12/30 01:25:31;;;;;;;15.07;8.43;;;3.70;96.10;;;;;;5017173;28;20416;-85
2020/12/30 01:27:57;;;;;;;18.27;7.53;;;3.70;96.10;;;;;;5017048;28;20425;-85
2020/12/30 01:30:23;;;;;;;14.75;7.43;;;3.70;96.00;;;;;;5017318;28;20408;-84
2020/12/30 01:32:49;;;;;;;14.30;7.10;;;3.60;96.30;;;;;;5017098;28;20202;-84
2020/12/30 01:35:15;;;;;;;15.63;6.33;;;3.60;96.40;;;;;;5016938;28;20656;-85
2020/12/30 01:37:41;;;;;;;16.73;6.80;;;3.70;96.30;;;;;;5016878;28;20459;-85
2020/12/30 01:40:08;;;;;;;11.35;6.43;;;3.60;96.30;;;;;;5016858;28;20502;-84
2020/12/30 01:42:45;;;;;;;15.48;7.63;;;3.70;96.60;;;;;;5016880;28;20177;-85
2020/12/30 01:45:12;;;;;;;19.15;7.60;;;3.60;96.80;;;;;;5016607;28;20162;-85
2020/12/30 01:47:38;;;;;;;15.38;7.90;;;3.60;97.00;;;;;;5016709;28;20202;-85
2020/12/30 01:50:07;;;;;;;18.75;6.93;;;3.60;97.00;;;;;;5016685;28;20605;-85
2020/12/30 01:52:34;;;;;;;9.90;6.20;;;3.60;96.90;;;;;;5016595;28;20214;-85
2020/12/30 01:55:01;;;;;;;13.82;6.03;;;3.60;96.70;;;;;;5016796;28;20601;-85
2020/12/30 01:57:29;;;;;;;15.57;6.88;;;3.60;97.10;;;;;;5016293;28;20194;-85
2020/12/30 01:59:54;;;;;;;14.18;7.28;;;3.60;96.90;;;;;;5016751;28;20200;-85
2020/12/30 02:02:24;;;;;;;10.30;5.63;;;3.50;96.90;;;;;;5016513;28;20170;-85
2020/12/30 02:04:52;;;;;;;14.63;6.43;;;3.50;96.80;;;;;;5016653;28;20401;-85
2020/12/30 02:07:18;;;;;;;16.13;7.80;;;3.60;96.80;;;;;;5016091;28;20209;-85
2020/12/30 02:09:45;;;;;;;11.07;6.00;;;3.60;96.50;;;;;;5016278;28;20173;-85
2020/12/30 02:12:12;;;;;;;11.15;5.57;;;3.50;96.70;;;;;;5015879;28;20174;-83
2020/12/30 02:14:39;;;;;;;10.90;6.28;;;3.50;96.80;;;;;;5016492;28;20224;-86
2020/12/30 02:17:04;;;;;;;18.48;7.00;;;3.60;97.10;;;;;;5016541;28;20193;-86
2020/12/30 02:19:30;;;;;;;11.83;6.30;;;3.60;96.90;;;;;;5016357;28;20323;-86
2020/12/30 02:22:02;;;;;;;17.13;5.95;;;3.60;96.70;;;;;;5016186;28;20543;-86
2020/12/30 02:24:29;;;;;;;11.43;5.95;;;3.60;96.90;;;;;;5016437;28;20536;-85
2020/12/30 02:26:56;;;;;;;17.02;7.20;;;3.60;97.00;;;;;;5016427;28;20194;-85
2020/12/30 02:29:22;;;;;;;12.55;5.70;;;3.60;96.90;;;;;;5016310;28;20174;-86
2020/12/30 02:31:48;;;;;;;11.25;5.80;;;3.60;97.10;;;;;;5015989;28;20194;-86
2020/12/30 02:34:14;;;;;;;13.98;5.80;;;3.60;97.10;;;;;;5016053;28;20632;-86
2020/12/30 02:36:40;;;;;;;7.80;5.23;;;3.70;97.10;;;;;;5015954;28;20229;-86
2020/12/30 02:39:05;;;;;;;14.20;5.17;;;3.60;97.10;;;;;;5015937;28;20990;-86
2020/12/30 02:41:32;;;;;;;12.23;6.33;;;3.70;97.10;;;;;;5015705;28;20405;-86
2020/12/30 02:44:01;;;;;;;8.95;4.75;;;3.70;96.90;;;;;;5016046;28;20421;-85
2020/12/30 02:46:27;;;;;;;17.13;5.30;;;3.70;97.10;;;;;;5015615;28;20197;-86
2020/12/30 02:48:52;;;;;;;9.82;4.38;;;3.70;97.10;;;;;;5016324;28;20332;-86
2020/12/30 02:51:18;;;;;;;8.30;5.10;;;3.60;97.30;;;;;;5015862;28;20197;-86
2020/12/30 02:53:44;;;;;;;9.10;5.03;;;3.70;97.30;;;;;;5015982;28;20613;-85
2020/12/30 02:56:10;;;;;;;17.40;4.23;;;3.70;97.40;;;;;;5015621;28;20527;-85
2020/12/30 02:58:35;;;;;;;13.27;4.73;;;3.70;97.30;;;;;;5015798;28;20182;-85
2020/12/30 03:01:01;;;;;;;8.97;4.50;;;3.80;97.00;;;;;;5015808;28;20415;-86
2020/12/30 03:03:27;;;;;;;8.23;4.03;;;3.80;96.60;;;;;;5015700;28;20179;-86
2020/12/30 03:05:54;;;;;;;10.23;4.10;;;3.80;96.60;;;;;;5015526;28;20428;-86
2020/12/30 03:08:20;;;;;;;11.52;3.60;;;3.80;96.60;;;;;;5015484;28;20524;-86
2020/12/30 03:10:46;;;;;;;7.33;4.43;;;3.80;96.80;;;;;;5015637;28;20181;-86
2020/12/30 03:13:11;;;;;;;10.00;4.27;;;3.80;96.70;;;;;;5015441;28;20555;-85
2020/12/30 03:15:37;;;;;;;5.93;3.40;;;3.80;96.80;;;;;;5015678;28;20170;-86
2020/12/30 03:18:03;;;;;;;8.50;3.90;;;3.90;96.70;;;;;;5015410;28;20169;-86
2020/12/30 03:20:28;;;;;;;6.50;3.73;;;3.80;96.80;;;;;;5015245;28;20409;-85
2020/12/30 03:22:54;;;;;;;10.57;3.13;;;3.80;96.80;;;;;;5015300;28;20887;-86
2020/12/30 03:25:20;;;;;;;4.63;3.47;;;3.80;96.90;;;;;;5015451;28;20201;-86
2020/12/30 03:27:46;;;;;;;8.27;3.88;;;3.80;97.00;;;;;;5015573;28;20436;-86
2020/12/30 03:30:12;;;;;;;4.03;2.17;;;3.80;97.00;;;;;;5015689;28;20181;-85
2020/12/30 03:32:38;;;;;;;1.70;1.70;;;3.80;97.20;;;;;;5014943;28;20530;-85
2020/12/30 03:35:04;;;;;;;6.00;2.30;;;3.90;96.90;;;;;;5014885;28;20409;-86
2020/12/30 03:37:30;;;;;;;3.25;2.38;;;3.90;96.80;;;;;;5015092;28;20192;-86
2020/12/30 03:39:56;;;;;;;3.47;1.95;;;4.00;96.60;;;;;;5015009;28;20173;-86
2020/12/30 03:42:22;;;;;;;2.30;1.70;;;4.00;96.10;;;;;;5015028;28;20178;-86
2020/12/30 03:44:47;;;;;;;4.07;1.80;;;4.10;95.90;;;;;;5015383;28;20434;-86
2020/12/30 03:47:13;;;;;;;3.87;2.30;;;4.20;95.80;;;;;;5014820;28;20448;-86
2020/12/30 03:49:39;;;;;;;4.73;1.97;;;4.20;95.30;;;;;;5015065;28;20502;-86
2020/12/30 03:52:04;;;;;;;2.53;2.13;;;4.20;95.50;;;;;;5014971;28;20553;-86
2020/12/30 03:54:30;;;;;;;4.60;2.00;;;4.20;95.80;;;;;;5015370;28;20210;-86
2020/12/30 03:56:56;;;;;;;4.37;2.20;;;4.20;95.80;;;;;;5015205;28;20194;-86
2020/12/30 03:59:22;;;;;;;2.87;1.80;;;4.10;95.90;;;;;;5015525;28;20181;-86
2020/12/30 04:01:47;;;;;;;3.00;1.60;;;4.20;96.10;;;;;;5014780;28;20174;-86
2020/12/30 04:04:14;;;;;;;3.40;1.97;;;4.20;95.50;;;;;;5014998;28;20420;-85
2020/12/30 04:06:41;;;;;;;3.78;1.88;;;4.10;95.60;;;;;;5015071;28;20445;-86
2020/12/30 04:09:07;;;;;;;7.97;2.40;;;4.10;95.50;;;;;;5014811;28;20193;-86
2020/12/30 04:11:33;;;;;;;6.75;1.95;;;4.10;95.80;;;;;;5014983;28;20170;-86
2020/12/30 04:13:59;;;;;;;3.63;1.93;;;4.10;95.80;;;;;;5014877;28;20201;-85
2020/12/30 04:16:24;;;;;;;5.37;2.70;;;4.00;95.50;;;;;;5014783;28;20433;-85
2020/12/30 04:18:51;;;;;;;6.80;2.40;;;4.00;95.80;;;;;;5015128;28;20201;-86
2020/12/30 04:21:21;;;;;;;9.43;4.00;;;3.90;95.90;;;;;;5015351;28;20409;-85
2020/12/30 04:23:51;;;;;;;8.05;4.50;;;3.80;96.20;;;;;;5015015;28;20174;-83
2020/12/30 04:26:18;;;;;;;6.82;3.50;;;3.70;96.60;;;;;;5014812;28;20197;-86
2020/12/30 04:28:44;;;;;;;10.02;3.72;;;3.70;96.60;;;;;;5015138;28;20210;-85
2020/12/30 04:31:11;;;;;;;8.35;3.92;;;3.60;96.80;;;;;;5014795;28;20178;-85
2020/12/30 04:33:37;;;;;;;11.30;3.70;;;3.60;97.00;;;;;;5018222;28;20275;-85
2020/12/30 04:36:07;;;;;;;9.48;3.50;;;3.40;97.30;;;;;;5018094;28;20247;-86
2020/12/30 04:38:34;;;;;;;9.27;4.40;;;3.30;97.50;;;;;;5018285;28;20227;-85
2020/12/30 04:41:07;;;;;;;6.05;3.17;;;3.30;97.70;;;;;;5018392;28;20170;-85
2020/12/30 04:43:41;;;;;;;8.77;3.30;;;3.30;97.80;;;;;;5018804;28;20311;-86
2020/12/30 04:46:10;;;;;;;4.05;2.85;;;3.20;97.80;;;;;;5018193;28;20202;-85
2020/12/30 04:48:37;;;;;;;4.95;2.33;;;3.20;97.80;;;;;;5018302;28;20189;-86
2020/12/30 04:51:06;;;;;;;6.47;2.88;;;3.20;97.40;;;;;;5018342;28;20177;-85
2020/12/30 04:53:34;;;;;;;6.70;2.83;;;3.20;97.10;;;;;;5018226;28;20256;-85
2020/12/30 04:56:01;;;;;;;6.03;2.90;;;3.20;97.30;;;;;;5018289;28;20280;-85
2020/12/30 04:58:29;;;;;;;7.05;3.13;;;3.10;97.30;;;;;;5018608;28;20170;-85
2020/12/30 05:00:57;;;;;;;6.20;3.30;;;3.10;97.90;;;;;;5018432;28;20197;-85
2020/12/30 05:03:30;;;;;;;5.13;3.10;;;3.10;98.10;;;;;;5018503;28;20210;-85
2020/12/30 05:06:00;;;;;;;7.78;3.50;;;3.10;98.10;;;;;;5018762;28;20198;-85
2020/12/30 05:08:26;;;;;;;4.97;3.08;;;3.10;98.30;;;;;;5018286;28;20203;-85
2020/12/30 05:10:55;;;;;;;12.13;3.95;;;3.00;98.60;;;;;;5018677;28;20269;-85
2020/12/30 05:13:20;;;;;;;7.65;3.85;;;3.00;98.70;;;;;;5018543;28;20252;-85
2020/12/30 05:15:49;;;;;;;8.03;3.70;;;3.00;98.80;;;;;;5017660;28;20174;-85
2020/12/30 05:18:15;;;;;;;10.27;5.45;;;2.90;98.90;;;;;;5018344;28;20412;-85
2020/12/30 05:20:41;;;;;;;8.20;4.10;;;2.90;98.70;;;;;;5017756;28;20669;-85
2020/12/30 05:23:10;;;;;;;6.70;4.10;;;2.90;99.10;;;;;;5017638;28;20424;-86
2020/12/30 05:25:38;;;;;;;8.68;4.35;;;2.90;99.10;;;;;;5017381;28;20420;-86
2020/12/30 05:28:05;;;;;;;7.20;3.83;;;2.90;99.00;;;;;;5017343;28;20224;-85
2020/12/30 05:30:33;;;;;;;8.45;4.15;;;2.80;99.00;;;;;;5017454;28;20708;-85
2020/12/30 05:32:59;;;;;;;8.80;4.50;;;2.80;99.10;;;;;;5017267;28;20197;-85
2020/12/30 05:35:30;;;;;;;6.90;3.85;;;2.80;99.10;;;;;;5017778;28;20639;-86
2020/12/30 05:37:56;;;;;;;12.00;3.83;;;2.80;99.10;;;;;;5017579;28;20232;-86
2020/12/30 05:40:30;;;;;;;7.53;3.70;;;2.80;99.10;;;;;;5017150;28;20174;-86
2020/12/30 05:43:16;;;;;;;9.13;3.72;;;2.80;99.10;;;;;;5017462;28;20181;-85
2020/12/30 05:45:51;;;;;;;5.95;3.42;;;2.80;99.10;;;;;;5017797;28;20227;-85
2020/12/30 05:48:21;;;;;;;15.10;4.10;;;2.90;99.10;;;;;;5018015;28;20162;-85
2020/12/30 05:50:51;;;;;;;5.05;3.10;;;2.90;99.10;;;;;;5017792;28;20189;-85
2020/12/30 05:53:18;;;;;;;6.97;2.90;;;2.90;99.10;;;;;;5018863;28;20280;-85
2020/12/30 05:55:47;;;;;;;4.07;2.55;;;3.00;98.90;;;;;;5019155;28;20178;-85
2020/12/30 05:58:15;;;;;;;13.80;3.78;;;3.00;98.80;;;;;;5018568;28;20177;-85
2020/12/30 06:00:41;;;;;;;10.13;3.30;;;3.00;98.80;;;;;;5018564;28;20261;-85
2020/12/30 06:03:07;;;;;;;8.35;2.95;;;3.10;98.60;;;;;;5018241;28;20174;-85
2020/12/30 06:05:33;;;;;;;8.25;3.55;;;3.10;98.40;;;;;;5017509;28;20177;-85
2020/12/30 06:08:00;;;;;;;9.98;3.70;;;3.10;98.40;;;;;;5017666;28;20193;-85
2020/12/30 06:10:33;;;;;;;10.30;3.80;;;3.10;98.20;;;;;;5017770;28;20177;-85
2020/12/30 06:13:01;;;;;;;5.60;3.00;;;3.10;98.20;;;;;;5017155;28;20661;-86
2020/12/30 06:15:32;;;;;;;11.35;3.38;;;3.10;98.20;;;;;;5017638;28;20202;-85
2020/12/30 06:18:03;;;;;;;14.30;4.40;;;3.10;97.90;;;;;;5018066;28;20227;-85
2020/12/30 06:20:31;;;;;;;8.45;4.32;;;3.00;98.10;;;;;;5018563;28;20177;-85
2020/12/30 06:23:02;;;;;;;6.10;4.32;;;3.00;98.10;;;;;;5018150;28;20259;-85
2020/12/30 06:25:39;;;;;;;15.73;5.22;;;3.10;97.80;;;;;;5017776;28;20169;-85
2020/12/30 06:28:16;;;;;;;7.22;4.72;;;3.00;97.70;;;;;;5017832;28;20184;-85
2020/12/30 06:30:44;;;;;;;11.35;4.70;;;3.00;97.90;;;;;;5017586;28;20181;-85
2020/12/30 06:33:11;;;;;;;10.43;5.30;;;3.00;97.70;;;;;;5017478;28;20716;-85
2020/12/30 06:35:39;;;;;;;8.50;3.70;;;2.90;97.70;;;;;;5017427;28;20166;-85
2020/12/30 06:38:20;;;;;;;8.75;4.40;;;2.90;97.80;;;;;;5017257;28;20170;-85
2020/12/30 06:41:05;;;;;;;9.57;4.93;;;2.90;97.60;;;;;;5025130;28;20181;-85
2020/12/30 06:43:54;;;;;;;9.05;4.93;;;2.90;97.90;;;;;;5024443;28;20180;-85
2020/12/30 06:46:22;;;;;;;10.90;4.70;;;2.90;97.70;;;;;;5017615;28;20558;-85
2020/12/30 06:48:55;;;;;;;9.65;5.18;;;2.90;97.80;;;;;;5017749;28;20177;-85
2020/12/30 06:51:22;;;;;;;8.48;4.75;;;2.90;97.90;;;;;;5017809;28;20178;-85
2020/12/30 06:53:52;;;;;;;13.70;4.68;;;2.80;97.90;;;;;;5016999;28;20967;-85
2020/12/30 06:56:42;;;;;;;10.65;4.50;;;2.70;98.20;;;;;;5016333;28;20185;-84
2020/12/30 06:59:09;;;;;;;13.75;4.47;;;2.80;98.20;;;;;;5008217;28;20639;-85
2020/12/30 07:01:55;;;;;;;11.93;5.22;;;2.70;98.20;;;;;;5017556;28;20256;-85
2020/12/30 07:04:22;;;;;;;11.93;5.35;;;2.70;98.40;;;;;;5020595;28;20178;-85
2020/12/30 07:06:48;;;;;;;10.07;4.97;;;2.60;98.70;;;;;;5021191;28;20296;-85
2020/12/30 07:09:14;;;;;;;9.67;5.37;;;2.60;98.90;;;;;;5029829;28;20682;-84
2020/12/30 07:11:49;;;;;;;8.85;4.97;;;2.70;98.90;;;;;;5027037;28;20905;-84
2020/12/30 07:14:20;;;;;;;11.63;5.65;;;2.70;98.60;;;;;;5025229;28;20562;-84
2020/12/30 07:16:52;;;;;;;7.25;4.65;;;2.70;98.50;;;;;;5011830;28;20222;-84
2020/12/30 07:19:25;;;;;;;11.52;4.30;;;2.60;98.70;;;;;;5005464;28;20165;-83
2020/12/30 07:22:05;;;;;;;11.00;5.03;;;2.60;98.80;;;;;;5035026;28;20169;-84
2020/12/30 07:24:45;;;;;;;7.95;4.78;;;2.60;98.90;;;;;;5035281;28;20196;-84
2020/12/30 07:27:13;;;;;;;10.40;4.70;;;2.60;98.80;;;;;;5035108;28;20193;-84
2020/12/30 07:29:40;;;;;;;17.27;6.10;;;2.60;99.00;;;;;;5035126;28;20179;-84
2020/12/30 07:32:07;;;;;;;6.53;4.60;;;2.60;99.00;;;;;;5035038;28;20173;-84
2020/12/30 07:34:35;;;;;;;9.68;4.50;;;2.50;99.10;;;;;;5034879;28;20205;-83
2020/12/30 07:37:04;;;;;;;6.95;4.10;;;2.50;99.10;;;;;;5024270;28;20192;-84
2020/12/30 07:39:37;;;;;;;10.18;5.20;;;2.50;99.10;;;;;;5015313;28;20646;-83
2020/12/30 07:42:04;;;;;;;6.25;4.05;;;2.50;99.10;;;;;;5014736;28;20539;-84
2020/12/30 07:44:30;;;;;;;16.33;5.25;;;2.50;99.10;;;;;;5015523;28;20257;-84
2020/12/30 07:47:05;;;;;;;10.47;5.40;;;2.50;99.10;;;;;;5014552;28;20197;-84
2020/12/30 07:49:32;;;;;;;10.23;4.45;;;2.60;99.10;;;;;;5015331;28;20759;-84
2020/12/30 07:52:00;;;;;;;9.43;4.60;;;2.60;99.10;;;;;;5015420;28;20548;-85
2020/12/30 07:54:27;;;;;;;5.10;3.33;;;2.70;99.10;;;;;;5015585;28;20288;-87
2020/12/30 07:57:01;;;;;;;7.35;4.13;;;2.70;99.10;;;;;;5015290;28;20186;-86
2020/12/30 07:59:27;;;;;;;13.50;4.18;;;2.70;99.10;;;;;;5015601;28;20161;-86
2020/12/30 08:02:12;;;;;;;10.17;4.90;;;2.80;99.10;;;;;;5015445;28;20185;-88
2020/12/30 08:04:39;;;;;;;7.05;3.72;;;2.90;98.80;;;;;;5015617;28;20943;-88
2020/12/30 08:07:06;;;;;;;11.68;4.25;;;2.90;98.60;;;;;;5018000;28;20214;-86
2020/12/30 08:09:34;;;;;;;5.07;3.70;;;3.00;98.90;;;;;;5019005;28;20169;-88
2020/12/30 08:12:06;;;;;;;7.60;4.10;;;3.00;98.80;;;;;;5019665;28;20205;-84
2020/12/30 08:14:34;;;;;;;4.53;3.35;;;3.10;98.60;;;;;;5101809;23;20233;-89
2020/12/30 08:17:01;;;;;;;9.95;4.22;;;3.20;98.00;;;;;;5039215;28;20228;-91
2020/12/30 08:19:36;;;;;;;8.32;4.43;;;3.30;97.80;;;;;;5039163;28;20188;-90
2020/12/30 08:22:05;;;;;;;11.02;3.55;;;3.40;97.30;;;;;;5038683;28;20679;-90
2020/12/30 08:24:36;;;;;;;8.52;3.90;;;3.50;97.00;;;;;;5040706;28;20177;-92
2020/12/30 08:27:03;;;;;;;6.57;3.08;;;3.50;96.70;;;;;;5038912;28;20232;-87
2020/12/30 08:29:34;;;;;;;6.90;3.78;;;3.60;96.00;;;;;;5038830;28;20654;-91
2020/12/30 08:32:32;;;;;;;13.15;4.40;;;3.60;96.00;;;;;;5038577;28;20222;-88
2020/12/30 08:35:04;;;;;;;7.97;3.13;;;3.70;95.70;;;;;;5005924;28;20288;-88
2020/12/30 08:37:32;;;;;;;8.95;2.90;;;3.60;95.50;;;;;;5038579;28;20596;-89
2020/12/30 08:40:04;;;;;;;7.13;4.00;;;3.70;95.70;;;;;;5038118;28;20264;-89
2020/12/30 08:42:45;;;;;;;4.43;3.05;;;3.70;95.60;;;;;;5038049;28;20219;-91
2020/12/30 08:45:14;;;;;;;9.93;3.35;;;3.80;95.40;;;;;;5038190;28;20176;-89
2020/12/30 08:47:40;;;;;;;6.50;3.15;;;3.90;95.00;;;;;;5038160;28;20283;-89
2020/12/30 08:50:07;;;;;;;6.43;3.30;;;4.00;94.40;;;;;;5038130;28;20173;-89
2020/12/30 08:52:43;;;;;;;5.10;3.17;;;4.10;94.20;;;;;;5037810;28;20546;-90
2020/12/30 08:55:10;;;;;;;9.18;4.32;;;4.10;93.90;;;;;;5037858;28;20185;-87
2020/12/30 08:57:42;;;;;;;9.13;3.63;;;4.20;93.60;;;;;;5037722;28;20193;-89
2020/12/30 09:00:12;;;;;;;8.32;3.50;;;4.20;93.50;;;;;;5038033;28;20191;-88
2020/12/30 09:02:38;;;;;;;8.45;4.47;;;4.30;93.10;;;;;;5037900;28;20165;-87
2020/12/30 09:05:04;;;;;;;10.67;4.00;;;4.30;92.90;;;;;;5037689;28;20260;-87
2020/12/30 09:07:30;;;;;;;10.97;3.63;;;4.40;92.50;;;;;;5037381;28;20443;-89
2020/12/30 09:10:06;;;;;;;5.20;3.27;;;4.40;92.60;;;;;;5038693;28;20407;-90
2020/12/30 09:12:32;;;;;;;14.68;3.83;;;4.40;92.90;;;;;;5037353;28;20427;-89
2020/12/30 09:14:58;;;;;;;8.30;3.50;;;4.40;92.30;;;;;;5038065;28;20291;-90
2020/12/30 09:17:23;;;;;;;7.97;4.70;;;4.40;92.30;;;;;;5039426;28;20427;-87
2020/12/30 09:19:49;;;;;;;6.67;3.80;;;4.40;92.80;;;;;;5037489;28;20531;-90
2020/12/30 09:22:15;;;;;;;5.67;3.13;;;4.40;92.60;;;;;;5038587;28;20419;-89
2020/12/30 09:24:43;;;;;;;11.10;4.00;;;4.50;91.80;;;;;;5038271;28;20837;-91
2020/12/30 09:27:21;;;;;;;8.75;3.70;;;4.50;92.20;;;;;;5037635;28;20219;-91
2020/12/30 09:30:13;;;;;;;15.63;4.53;;;4.60;92.40;;;;;;5037084;28;20583;-91
2020/12/30 09:32:41;;;;;;;19.40;5.07;;;4.60;92.00;;;;;;5038369;28;20589;-92
2020/12/30 09:35:09;;;;;;;6.18;3.70;;;4.70;91.80;;;;;;5024813;28;20219;-93
2020/12/30 09:37:35;;;;;;;8.05;4.05;;;4.80;91.80;;;;;;5041222;28;20185;-93
2020/12/30 09:40:10;;;;;;;11.52;3.75;;;4.70;92.00;;;;;;5039547;28;20174;-91
2020/12/30 09:42:37;;;;;;;10.80;4.25;;;4.80;91.80;;;;;;5037214;28;20165;-91
2020/12/30 09:45:08;;;;;;;17.00;4.07;;;4.90;91.00;;;;;;5037138;28;20195;-92
2020/12/30 09:47:34;;;;;;;7.10;3.13;;;4.90;91.40;;;;;;5037231;28;20193;-91
2020/12/30 09:50:01;;;;;;;13.82;3.78;;;4.90;91.00;;;;;;5036963;28;20227;-91
2020/12/30 09:52:27;;;;;;;8.85;3.75;;;5.00;91.40;;;;;;5037180;28;20188;-91
2020/12/30 09:54:53;;;;;;;8.47;3.93;;;4.90;91.40;;;;;;5036689;28;20280;-91
2020/12/30 09:57:18;;;;;;;10.20;4.47;;;4.90;91.00;;;;;;5036559;28;20430;-90
2020/12/30 09:59:44;;;;;;;9.77;4.70;;;4.90;91.50;;;;;;5036512;28;20416;-90
2020/12/30 10:02:10;;;;;;;8.20;4.43;;;5.00;91.10;;;;;;5036614;28;20973;-91
2020/12/30 10:04:38;;;;;;;14.15;4.97;;;5.00;91.10;;;;;;5037121;28;20226;-90
2020/12/30 10:07:04;;;;;;;7.80;3.60;;;5.00;90.80;;;;;;5036605;28;20193;-91
2020/12/30 10:09:29;;;;;;;10.53;4.03;;;5.10;90.80;;;;;;5036725;28;20177;-91
2020/12/30 10:11:55;;;;;;;6.83;3.47;;;5.00;90.60;;;;;;5036755;28;20193;-91
2020/12/30 10:14:23;;;;;;;10.03;3.10;;;5.10;90.70;;;;;;5036584;28;20551;-91
2020/12/30 10:16:48;;;;;;;10.30;4.07;;;5.10;90.50;;;;;;5036516;28;21021;-92
2020/12/30 10:19:15;;;;;;;4.67;3.43;;;5.10;90.60;;;;;;5054670;28;20248;-91
2020/12/30 10:21:41;;;;;;;7.38;3.42;;;5.10;90.50;;;;;;5037337;28;20422;-92
2020/12/30 10:24:07;;;;;;;8.17;3.07;;;5.10;90.10;;;;;;5036562;28;20177;-90
2020/12/30 10:26:33;;;;;;;9.63;3.60;;;5.10;90.10;;;;;;5036257;28;20453;-91
2020/12/30 10:29:00;;;;;;;11.23;4.35;;;5.10;90.20;;;;;;5036026;28;20177;-90
2020/12/30 10:31:26;;;;;;;12.75;3.75;;;5.20;90.50;;;;;;5036094;28;20180;-91
2020/12/30 10:33:52;;;;;;;9.02;3.03;;;5.30;90.10;;;;;;5036837;28;20599;-90
2020/12/30 10:36:19;;;;;;;14.90;4.40;;;5.20;90.10;;;;;;5036338;28;20277;-88
2020/12/30 10:38:44;;;;;;;5.93;3.10;;;5.30;90.30;;;;;;5035708;28;20177;-89
2020/12/30 10:41:17;;;;;;;7.63;4.37;;;5.40;90.30;;;;;;5035879;28;20188;-89
2020/12/30 10:43:44;;;;;;;4.82;3.40;;;5.40;90.10;;;;;;5036211;28;20470;-89
2020/12/30 10:46:14;;;;;;;7.45;3.85;;;5.40;89.60;;;;;;5036037;28;20232;-88
2020/12/30 10:48:44;;;;;;;6.00;3.70;;;5.50;90.30;;;;;;5035865;28;20706;-88
2020/12/30 10:51:11;;;;;;;7.85;3.90;;;5.60;89.90;;;;;;5035519;28;20218;-88
2020/12/30 10:53:37;;;;;;;8.40;3.67;;;5.70;90.10;;;;;;5035236;28;20251;-88
2020/12/30 10:56:03;;;;;;;7.90;4.10;;;5.70;88.50;;;;;;5035708;28;20201;-88
2020/12/30 10:58:29;;;;;;;11.65;4.65;;;5.70;89.60;;;;;;5035490;28;20454;-88
2020/12/30 11:00:56;;;;;;;7.75;3.55;;;5.80;89.50;;;;;;5035653;28;20201;-89
2020/12/30 11:03:22;;;;;;;8.05;3.58;;;5.90;88.90;;;;;;5035112;28;20384;-88
2020/12/30 11:05:47;;;;;;;4.13;2.90;;;6.00;88.00;;;;;;5035516;28;20173;-88
2020/12/30 11:08:14;;;;;;;8.17;3.77;;;6.10;88.30;;;;;;5035094;28;20412;-88
2020/12/30 11:10:40;;;;;;;5.82;3.33;;;6.10;86.30;;;;;;5035111;28;20223;-88
2020/12/30 11:13:06;;;;;;;5.90;2.85;;;6.10;87.70;;;;;;5034978;28;20204;-88
2020/12/30 11:15:35;;;;;;;6.23;3.33;;;6.20;87.70;;;;;;5035790;28;20165;-89
2020/12/30 11:18:04;;;;;;;15.60;3.55;;;6.30;87.30;;;;;;5035251;28;20165;-88
2020/12/30 11:20:30;;;;;;;6.28;2.65;;;6.40;87.60;;;;;;5035339;28;20177;-89
2020/12/30 11:22:55;;;;;;;6.70;2.90;;;6.60;87.10;;;;;;5034549;28;20207;-89
2020/12/30 11:25:21;;;;;;;6.30;2.93;;;6.60;86.30;;;;;;5034944;28;20499;-88
2020/12/30 11:27:47;;;;;;;7.53;2.30;;;6.70;85.50;;;;;;5035012;28;20496;-88
2020/12/30 11:30:14;;;;;;;4.65;2.58;;;6.70;84.90;;;;;;5035047;28;20416;-87
2020/12/30 11:32:40;;;;;;;7.40;3.33;;;6.80;84.80;;;;;;5034490;28;20177;-88
2020/12/30 11:35:07;;;;;;;6.33;2.10;;;6.80;84.40;;;;;;5034758;28;20177;-88
2020/12/30 11:37:32;;;;;;;14.95;3.28;;;6.90;83.90;;;;;;5034745;28;20970;-88
2020/12/30 11:39:58;;;;;;;5.43;1.90;;;6.90;84.80;;;;;;5034836;28;20169;-88
2020/12/30 11:42:24;;;;;;;2.50;1.50;;;6.90;83.30;;;;;;5037991;28;20172;-88
2020/12/30 11:44:51;;;;;;;1.80;1.37;;;6.90;83.30;;;;;;5038956;28;20262;-87
2020/12/30 11:47:16;;;;;;;8.73;2.15;;;6.90;83.30;;;;;;5038613;28;20185;-88
2020/12/30 11:49:42;;;;;;;3.77;1.93;;;6.80;83.70;;;;;;5038863;28;20219;-88
2020/12/30 11:52:11;;;;;;;2.70;1.43;;;6.80;83.90;;;;;;5038601;28;20404;-88
2020/12/30 11:54:37;;;;;;;3.80;1.60;;;6.80;83.30;;;;;;5038505;28;20197;-87
2020/12/30 11:57:02;;;;;;;1.97;1.40;;;6.90;83.80;;;;;;5038471;28;20694;-87
2020/12/30 11:59:28;;;;;;;7.10;1.70;;;6.90;83.10;;;;;;5038626;28;20664;-87
2020/12/30 12:01:57;;;;;;;3.03;1.57;;;6.80;83.80;;;;;;5038108;28;20184;-88
2020/12/30 12:04:22;;;;;;;5.38;2.10;;;6.90;85.10;;;;;;5038487;28;20169;-88
2020/12/30 12:06:49;;;;;;;2.63;1.30;;;7.00;84.60;;;;;;5038339;28;20197;-88
2020/12/30 12:09:15;;;;;;;5.15;1.90;;;7.10;83.00;;;;;;5038265;28;20264;-88
2020/12/30 12:11:41;;;;;;;5.53;1.60;;;7.20;82.80;;;;;;5038227;28;20197;-88
2020/12/30 12:14:07;;;;;;;2.33;1.33;;;7.30;83.40;;;;;;5037926;28;20236;-88
2020/12/30 12:16:33;;;;;;;1.58;1.00;;;7.40;82.80;;;;;;5038452;28;20189;-88
2020/12/30 12:18:59;;;;;;;3.23;1.73;;;7.50;81.20;;;;;;5038383;28;20201;-88
2020/12/30 12:21:25;;;;;;;1.20;1.00;;;7.60;82.00;;;;;;5038291;28;20403;-88
2020/12/30 12:23:51;;;;;;;2.10;1.48;;;7.60;82.40;;;;;;5038434;28;20470;-88
2020/12/30 12:26:27;;;;;;;2.23;1.03;;;7.70;83.00;;;;;;5038725;28;20286;-88
2020/12/30 12:28:59;;;;;;;3.75;1.48;;;7.80;80.90;;;;;;5038373;28;20198;-87
2020/12/30 12:31:25;;;;;;;4.13;1.40;;;7.70;80.20;;;;;;5038114;28;20204;-88
2020/12/30 12:33:50;;;;;;;2.63;1.50;;;7.50;80.90;;;;;;5038054;28;20239;-87
2020/12/30 12:36:17;;;;;;;2.70;1.90;;;7.40;80.90;;;;;;5037909;28;20530;-88
2020/12/30 12:38:43;;;;;;;2.13;1.20;;;7.40;81.90;;;;;;5038094;28;20958;-88
2020/12/30 12:41:09;;;;;;;3.35;1.50;;;7.40;82.30;;;;;;5037844;28;20170;-88
2020/12/30 12:43:35;;;;;;;3.90;1.25;;;7.30;82.60;;;;;;5038258;28;20260;-88
2020/12/30 12:46:02;;;;;;;1.90;1.40;;;7.30;83.10;;;;;;5037921;28;20209;-87
2020/12/30 12:48:28;;;;;;;3.25;1.45;;;7.40;82.60;;;;;;5037776;28;20266;-88
2020/12/30 12:50:53;;;;;;;1.07;0.90;;;7.40;83.40;;;;;;5037508;28;20239;-88
2020/12/30 12:53:19;;;;;;;2.37;1.40;;;7.50;84.40;;;;;;5036412;28;20458;-88
2020/12/30 12:55:45;;;;;;;2.47;1.67;;;7.50;82.10;;;;;;5038177;28;20177;-88